createdAt,value
2023-02-14T00:02:39.463Z,3.75
2023-02-14T00:06:42.798Z,3.51
2023-02-14T00:10:45.851Z,3.31
2023-02-14T00:15:07.540Z,3.28
2023-02-14T00:19:13.805Z,3.49
2023-02-14T00:23:16.884Z,3.45
2023-02-14T00:27:19.985Z,3.25
2023-02-14T00:31:24.627Z,3.40
2023-02-14T00:35:27.744Z,3.64
2023-02-14T00:39:30.953Z,3.62
2023-02-14T00:43:34.041Z,3.33
2023-02-14T00:47:38.427Z,3.53
2023-02-14T00:51:41.532Z,3.58
2023-02-14T00:55:46.229Z,3.38
2023-02-14T00:59:50.596Z,3.01
2023-02-14T01:03:55.135Z,3.14
2023-02-14T01:07:58.177Z,3.54
2023-02-14T01:12:01.240Z,3.42
2023-02-14T01:16:07.838Z,3.33
2023-02-14T01:20:12.767Z,3.24
2023-02-14T01:24:16.244Z,3.00
2023-02-14T01:28:19.380Z,2.77
2023-02-14T01:32:22.463Z,2.67
2023-02-14T01:36:29.662Z,2.58
2023-02-14T01:40:32.768Z,2.36
2023-02-14T01:44:59.297Z,2.28
2023-02-14T01:49:07.254Z,2.22
2023-02-14T01:53:17.121Z,2.15
2023-02-14T01:57:23.408Z,1.93
2023-02-14T02:01:26.739Z,1.89
2023-02-14T02:05:29.885Z,1.92
2023-02-14T02:09:36.782Z,1.89
2023-02-14T02:13:39.809Z,1.81
2023-02-14T02:17:54.055Z,1.74
2023-02-14T02:22:19.261Z,1.63
2023-02-14T02:27:01.758Z,1.73
2023-02-14T02:31:31.778Z,1.77
2023-02-14T02:35:54.435Z,1.56
2023-02-14T02:40:15.584Z,1.54
2023-02-14T02:44:22.754Z,1.38
2023-02-14T02:48:35.986Z,1.39
2023-02-14T02:53:03.189Z,1.36
2023-02-14T02:57:13.632Z,1.17
2023-02-14T03:01:23.069Z,1.09
2023-02-14T03:05:29.596Z,1.12
2023-02-14T03:09:58.601Z,1.07
2023-02-14T03:14:20.751Z,1.03
2023-02-14T03:18:52.518Z,1.10
2023-02-14T03:23:05.266Z,0.95
2023-02-14T03:27:16.440Z,0.88
2023-02-14T03:31:25.631Z,0.99
2023-02-14T03:35:33.723Z,1.01
2023-02-14T03:39:42.827Z,0.95
2023-02-14T03:43:52.308Z,0.99
2023-02-14T03:47:59.146Z,0.92
2023-02-14T03:52:05.137Z,0.82
2023-02-14T03:56:15.045Z,0.63
2023-02-14T04:00:20.256Z,0.62
2023-02-14T04:04:27.527Z,0.56
2023-02-14T04:08:31.297Z,0.56
2023-02-14T04:12:37.938Z,0.71
2023-02-14T04:16:56.620Z,0.52
2023-02-14T04:21:00.039Z,0.41
2023-02-14T04:25:03.251Z,0.39
2023-02-14T04:29:06.277Z,0.23
2023-02-14T04:33:10.844Z,0.34
2023-02-14T04:37:15.010Z,0.28
2023-02-14T04:41:18.079Z,0.37
2023-02-14T04:45:21.086Z,0.38
2023-02-14T04:49:25.447Z,0.46
2023-02-14T04:53:28.484Z,0.51
2023-02-14T04:57:31.608Z,0.38
2023-02-14T05:01:34.850Z,0.23
2023-02-14T05:05:39.324Z,0.06
2023-02-14T05:09:42.366Z,-0.02
2023-02-14T05:13:45.410Z,-0.05
2023-02-14T05:17:48.448Z,-0.09
2023-02-14T05:21:52.803Z,-0.04
2023-02-14T05:25:55.811Z,0.07
2023-02-14T05:29:58.859Z,-0.05
2023-02-14T05:34:02.003Z,0.24
2023-02-14T05:38:06.400Z,0.13
2023-02-14T05:42:12.111Z,0.08
2023-02-14T05:46:15.285Z,-0.04
2023-02-14T05:50:18.966Z,0.00
2023-02-14T05:54:23.329Z,-0.11
2023-02-14T05:58:26.703Z,-0.10
2023-02-14T06:02:29.774Z,-0.11
2023-02-14T06:06:34.641Z,-0.11
2023-02-14T06:10:39.975Z,-0.07
2023-02-14T06:14:43.149Z,-0.04
2023-02-14T06:18:46.179Z,-0.18
2023-02-14T06:22:49.299Z,-0.02
2023-02-14T06:26:53.649Z,-0.15
2023-02-14T06:30:57.045Z,0.13
2023-02-14T06:35:00.141Z,0.19
2023-02-14T06:39:03.203Z,0.10
2023-02-14T06:43:07.622Z,0.03
2023-02-14T06:47:10.664Z,0.02
2023-02-14T06:51:14.022Z,-0.08
2023-02-14T06:55:17.368Z,-0.02
2023-02-14T06:59:21.746Z,0.15
2023-02-14T07:03:24.868Z,0.33
2023-02-14T07:07:27.913Z,0.34
2023-02-14T07:11:31.010Z,0.65
2023-02-14T07:15:35.441Z,1.10
2023-02-14T07:19:38.739Z,1.13
2023-02-14T07:23:41.785Z,1.16
2023-02-14T07:27:45.596Z,1.72
2023-02-14T07:31:50.095Z,2.52
2023-02-14T07:35:53.225Z,3.49
2023-02-14T07:39:58.142Z,4.49
2023-02-14T07:44:01.157Z,5.28
2023-02-14T07:48:05.979Z,6.11
2023-02-14T07:52:09.000Z,6.73
2023-02-14T07:56:12.008Z,6.98
2023-02-14T08:00:15.922Z,6.62
2023-02-14T08:04:20.317Z,6.62
2023-02-14T08:08:23.520Z,6.89
2023-02-14T08:12:43.874Z,6.53
2023-02-14T08:16:46.854Z,7.31
2023-02-14T08:20:51.495Z,7.41
2023-02-14T08:24:54.568Z,6.74
2023-02-14T08:28:57.615Z,7.59
2023-02-14T08:33:00.688Z,6.92
2023-02-14T08:37:05.162Z,7.27
2023-02-14T08:41:09.237Z,7.02
2023-02-14T08:45:12.642Z,7.26
2023-02-14T08:49:15.673Z,8.44
2023-02-14T08:53:22.111Z,8.32
2023-02-14T08:57:25.379Z,8.08
2023-02-14T09:01:29.211Z,8.37
2023-02-14T09:05:32.372Z,7.35
2023-02-14T09:09:36.990Z,8.30
2023-02-14T09:13:40.250Z,7.87
2023-02-14T09:17:43.349Z,8.86
2023-02-14T09:21:46.637Z,8.82
2023-02-14T09:25:51.084Z,8.85
2023-02-14T09:29:54.290Z,9.05
2023-02-14T09:33:57.370Z,9.71
2023-02-14T09:38:00.571Z,9.80
2023-02-14T09:42:19.977Z,10.07
2023-02-14T09:46:25.813Z,10.70
2023-02-14T09:50:34.608Z,11.32
2023-02-14T09:54:38.488Z,11.20
2023-02-14T09:58:51.406Z,11.09
2023-02-14T10:03:01.676Z,11.12
2023-02-14T10:07:14.549Z,11.17
2023-02-14T10:11:21.394Z,10.40
2023-02-14T10:15:29.148Z,10.20
2023-02-14T10:19:39.381Z,10.45
2023-02-14T10:23:46.845Z,12.02
2023-02-14T10:27:50.330Z,11.24
2023-02-14T10:31:59.745Z,11.49
2023-02-14T10:36:07.345Z,10.54
2023-02-14T10:40:36.438Z,12.21
2023-02-14T10:44:48.647Z,11.20
2023-02-14T10:49:01.750Z,10.71
2023-02-14T10:53:15.815Z,12.70
2023-02-14T10:57:24.161Z,12.56
2023-02-14T11:01:27.293Z,12.69
2023-02-14T11:05:35.716Z,11.89
2023-02-14T11:09:38.724Z,13.47
2023-02-14T11:13:42.559Z,11.70
2023-02-14T11:17:45.640Z,12.31
2023-02-14T11:21:51.738Z,13.01
2023-02-14T11:25:56.939Z,11.99
2023-02-14T11:30:02.285Z,12.73
2023-02-14T11:34:07.818Z,13.21
2023-02-14T11:38:31.579Z,13.66
2023-02-14T11:42:40.121Z,12.57
2023-02-14T11:46:52.846Z,12.25
2023-02-14T11:51:01.581Z,12.35
2023-02-14T11:55:07.456Z,12.86
2023-02-14T11:59:15.417Z,12.51
2023-02-14T12:03:20.556Z,13.01
2023-02-14T12:07:29.194Z,12.51
2023-02-14T12:11:33.595Z,15.12
2023-02-14T12:15:40.398Z,15.91
2023-02-14T12:19:50.101Z,14.53
2023-02-14T12:24:04.354Z,13.93
2023-02-14T12:28:15.753Z,15.71
2023-02-14T12:32:23.634Z,16.26
2023-02-14T12:36:46.313Z,16.41
2023-02-14T12:40:58.228Z,15.86
2023-02-14T12:45:11.547Z,17.84
2023-02-14T12:49:49.654Z,15.92
2023-02-14T12:54:10.439Z,14.70
2023-02-14T12:58:30.633Z,15.56
2023-02-14T13:03:01.841Z,14.77
2023-02-14T13:07:13.455Z,16.13
2023-02-14T13:11:29.064Z,15.25
2023-02-14T13:15:40.764Z,16.75
2023-02-14T13:19:50.314Z,17.03
2023-02-14T13:23:59.180Z,16.07
2023-02-14T13:28:05.629Z,15.85
2023-02-14T13:32:15.244Z,16.53
2023-02-14T13:36:20.448Z,18.27
2023-02-14T13:40:26.325Z,15.37
2023-02-14T13:44:47.691Z,16.34
2023-02-14T13:49:01.996Z,16.41
2023-02-14T13:53:06.616Z,16.80
2023-02-14T13:57:31.520Z,17.94
2023-02-14T14:01:39.045Z,16.06
2023-02-14T14:05:58.132Z,17.09
2023-02-14T14:10:05.575Z,16.66
2023-02-14T14:14:37.208Z,17.18
2023-02-14T14:18:43.813Z,16.98
2023-02-14T14:22:48.772Z,17.28
2023-02-14T14:27:00.619Z,16.97
2023-02-14T14:31:23.992Z,17.34
2023-02-14T14:35:38.636Z,16.95
2023-02-14T14:39:54.694Z,18.26
2023-02-14T14:44:03.313Z,17.56
2023-02-14T14:48:18.923Z,17.12
2023-02-14T14:52:43.051Z,16.74
2023-02-14T14:57:03.025Z,17.06
2023-02-14T15:01:34.942Z,16.79
2023-02-14T15:05:53.150Z,16.87
2023-02-14T15:10:08.951Z,17.05
2023-02-14T15:14:28.966Z,16.40
2023-02-14T15:18:46.980Z,16.96
2023-02-14T15:23:02.995Z,15.61
2023-02-14T15:27:36.327Z,15.71
2023-02-14T15:32:14.097Z,16.19
2023-02-14T15:36:56.066Z,15.78
2023-02-14T15:41:32.993Z,15.84
2023-02-14T15:46:14.045Z,15.86
2023-02-14T15:50:59.487Z,14.95
2023-02-14T15:55:44.295Z,15.08
2023-02-14T16:00:31.992Z,14.73
2023-02-14T16:05:08.997Z,14.11
2023-02-14T16:09:47.013Z,14.34
2023-02-14T16:14:48.999Z,14.42
2023-02-14T16:19:50.986Z,14.48
2023-02-14T16:24:28.000Z,14.51
2023-02-14T16:29:04.992Z,14.27
2023-02-14T16:33:44.998Z,13.89
2023-02-14T16:38:26.991Z,12.52
2023-02-14T16:43:05.988Z,12.58
2023-02-14T16:47:42.984Z,12.14
2023-02-14T16:52:25.000Z,11.60
2023-02-14T16:57:07.014Z,11.11
2023-02-14T17:01:44.119Z,10.75
2023-02-14T17:06:20.995Z,10.02
2023-02-14T17:11:01.214Z,9.76
2023-02-14T17:15:39.029Z,9.51
2023-02-14T17:20:15.995Z,9.19
2023-02-14T17:24:53.017Z,8.85
2023-02-14T17:29:31.064Z,8.63
2023-02-14T17:34:08.253Z,8.41
2023-02-14T17:38:45.031Z,8.03
2023-02-14T17:43:22.033Z,7.96
2023-02-14T17:48:00.035Z,7.97
2023-02-14T17:52:37.032Z,7.92
2023-02-14T17:57:14.037Z,7.82
2023-02-14T18:01:51.092Z,7.41
2023-02-14T18:06:30.056Z,7.21
2023-02-14T18:11:07.074Z,7.09
2023-02-14T18:15:44.066Z,6.91
2023-02-14T18:20:22.072Z,6.76
2023-02-14T18:25:00.061Z,6.62
2023-02-14T18:29:38.051Z,6.56
2023-02-14T18:34:15.056Z,6.70
2023-02-14T18:38:53.048Z,6.47
2023-02-14T18:43:31.056Z,6.27
2023-02-14T18:48:08.056Z,6.22
2023-02-14T18:52:38.081Z,6.06
2023-02-14T18:57:15.018Z,5.97
2023-02-14T19:01:57.125Z,5.82
2023-02-14T19:06:36.095Z,5.87
2023-02-14T19:11:13.055Z,5.88
2023-02-14T19:15:50.071Z,5.93
2023-02-14T19:20:29.085Z,5.71
2023-02-14T19:25:07.065Z,6.06
2023-02-14T19:29:45.087Z,5.74
2023-02-14T19:34:23.126Z,5.55
2023-02-14T19:39:03.201Z,5.43
2023-02-14T19:43:40.067Z,5.29
2023-02-14T19:48:17.079Z,5.39
2023-02-14T19:52:54.121Z,5.71
2023-02-14T19:57:32.067Z,5.90
2023-02-14T20:02:10.340Z,6.09
2023-02-14T20:06:47.125Z,5.93
2023-02-14T20:11:34.074Z,6.06
2023-02-14T20:16:12.101Z,5.85
2023-02-14T20:21:06.110Z,5.77
2023-02-14T20:25:43.107Z,5.50
2023-02-14T20:30:21.099Z,5.58
2023-02-14T20:34:59.120Z,5.49
2023-02-14T20:39:38.167Z,5.41
2023-02-14T20:44:18.120Z,5.07
2023-02-14T20:48:55.099Z,4.83
2023-02-14T20:53:33.111Z,4.57
2023-02-14T20:58:10.147Z,4.63
2023-02-14T21:02:47.096Z,4.72
2023-02-14T21:07:24.113Z,4.95
2023-02-14T21:12:02.137Z,5.04
2023-02-14T21:16:32.117Z,4.99
2023-02-14T21:21:09.137Z,5.01
2023-02-14T21:25:46.114Z,4.92
2023-02-14T21:30:25.149Z,4.82
2023-02-14T21:35:02.117Z,4.78
2023-02-14T21:39:42.134Z,4.61
2023-02-14T21:44:40.155Z,4.64
2023-02-14T21:49:37.135Z,4.50
2023-02-14T21:54:07.134Z,4.45
2023-02-14T21:58:45.126Z,4.41
2023-02-14T22:03:22.159Z,4.31
2023-02-14T22:08:00.138Z,4.24
2023-02-14T22:12:37.149Z,4.18
2023-02-14T22:17:14.147Z,4.15
2023-02-14T22:21:51.115Z,4.04
2023-02-14T22:26:31.142Z,4.07
2023-02-14T22:31:08.198Z,3.94
2023-02-14T22:35:45.147Z,3.77
2023-02-14T22:40:23.127Z,3.69
2023-02-14T22:45:02.143Z,3.59
2023-02-14T22:49:39.162Z,3.43
2023-02-14T22:54:19.146Z,3.46
2023-02-14T22:58:56.156Z,3.45
2023-02-14T23:03:34.161Z,3.49
2023-02-14T23:08:11.151Z,3.40
2023-02-14T23:13:05.141Z,3.39
2023-02-14T23:17:59.168Z,3.39
2023-02-14T23:22:39.168Z,3.29
2023-02-14T23:27:17.175Z,3.18
2023-02-14T23:31:54.219Z,3.08
2023-02-14T23:36:31.169Z,2.90
2023-02-14T23:41:26.163Z,2.85
2023-02-14T23:46:03.541Z,2.74
2023-02-14T23:50:40.160Z,2.64
2023-02-14T23:55:18.216Z,2.68
2023-02-14T23:59:56.184Z,2.71
